Westport, Connecticut
Current Conditions -  °F | °C
As of 10:52 PM on Tuesday 21 Oct 2014 (Local Time) from KBDR Reporting Station
Overcast Overcast  
Wind Chill: 56°   Ceiling: 10000
Heat Index: 56°   Visibility: 10mi
Dew Point: 52°   Wind: 12mph
Humidity: 87%   Direction: 20°NNE
Pressure: 29.92"   Gusts: NA
Location:  41.14°N, 73.36°W
Report Text: KBDR 220252Z AUTO 02010KT 10SM OVC100 13/11 A2992 RMK AO2 SLP132 T01330111 52011
Loading
Personal Weather Stations






























Interactive Weather Map New forecast layout! Learn more

10-Day Weather Forecast

Advertisements
Track Severe Weather on mobile